sensor_id;sensor_type;location;lat;lon;timestamp;P1;durP1;ratioP1;P2;durP2;ratioP2
15486;SDS011;7845;53.698;10.078;2023-07-28T00:00:13;4.80;;;2.67;;
15486;SDS011;7845;53.698;10.078;2023-07-28T00:02:39;4.70;;;2.80;;
15486;SDS011;7845;53.698;10.078;2023-07-28T00:05:05;4.50;;;2.67;;
15486;SDS011;7845;53.698;10.078;2023-07-28T00:07:30;4.50;;;2.47;;
15486;SDS011;7845;53.698;10.078;2023-07-28T00:09:59;4.93;;;2.73;;
15486;SDS011;7845;53.698;10.078;2023-07-28T00:12:24;4.67;;;2.73;;
15486;SDS011;7845;53.698;10.078;2023-07-28T00:14:49;4.90;;;3.20;;
15486;SDS011;7845;53.698;10.078;2023-07-28T00:17:15;4.90;;;2.67;;
15486;SDS011;7845;53.698;10.078;2023-07-28T00:19:40;4.30;;;2.43;;
15486;SDS011;7845;53.698;10.078;2023-07-28T00:22:11;4.20;;;2.10;;
15486;SDS011;7845;53.698;10.078;2023-07-28T00:24:37;3.90;;;2.10;;
15486;SDS011;7845;53.698;10.078;2023-07-28T00:27:08;4.13;;;1.90;;
15486;SDS011;7845;53.698;10.078;2023-07-28T00:29:33;3.93;;;1.83;;
15486;SDS011;7845;53.698;10.078;2023-07-28T00:32:02;3.90;;;1.77;;
15486;SDS011;7845;53.698;10.078;2023-07-28T00:34:27;3.40;;;1.40;;
15486;SDS011;7845;53.698;10.078;2023-07-28T00:36:55;3.70;;;1.77;;
15486;SDS011;7845;53.698;10.078;2023-07-28T00:39:20;3.87;;;1.90;;
15486;SDS011;7845;53.698;10.078;2023-07-28T00:41:46;3.87;;;2.03;;
15486;SDS011;7845;53.698;10.078;2023-07-28T00:44:11;3.40;;;1.57;;
15486;SDS011;7845;53.698;10.078;2023-07-28T00:46:36;3.87;;;2.07;;
15486;SDS011;7845;53.698;10.078;2023-07-28T00:49:02;3.93;;;2.30;;
15486;SDS011;7845;53.698;10.078;2023-07-28T00:51:29;4.13;;;2.00;;
15486;SDS011;7845;53.698;10.078;2023-07-28T00:53:57;3.83;;;1.90;;
15486;SDS011;7845;53.698;10.078;2023-07-28T00:56:24;3.60;;;1.60;;
15486;SDS011;7845;53.698;10.078;2023-07-28T00:58:50;4.00;;;2.00;;
15486;SDS011;7845;53.698;10.078;2023-07-28T01:01:19;4.07;;;2.10;;
15486;SDS011;7845;53.698;10.078;2023-07-28T01:03:44;3.70;;;1.63;;
15486;SDS011;7845;53.698;10.078;2023-07-28T01:09:13;4.20;;;2.00;;
15486;SDS011;7845;53.698;10.078;2023-07-28T01:14:23;4.07;;;2.27;;
15486;SDS011;7845;53.698;10.078;2023-07-28T01:16:52;3.93;;;2.23;;
15486;SDS011;7845;53.698;10.078;2023-07-28T01:19:18;3.97;;;2.00;;
15486;SDS011;7845;53.698;10.078;2023-07-28T01:21:45;3.40;;;1.57;;
15486;SDS011;7845;53.698;10.078;2023-07-28T01:27:13;3.47;;;1.50;;
15486;SDS011;7845;53.698;10.078;2023-07-28T01:29:38;4.10;;;1.77;;
15486;SDS011;7845;53.698;10.078;2023-07-28T01:32:07;4.43;;;2.57;;
15486;SDS011;7845;53.698;10.078;2023-07-28T01:34:44;4.03;;;2.27;;
15486;SDS011;7845;53.698;10.078;2023-07-28T01:37:18;4.70;;;2.70;;
15486;SDS011;7845;53.698;10.078;2023-07-28T01:39:43;3.60;;;1.80;;
15486;SDS011;7845;53.698;10.078;2023-07-28T01:42:09;6.20;;;3.47;;
15486;SDS011;7845;53.698;10.078;2023-07-28T01:44:34;4.70;;;2.93;;
15486;SDS011;7845;53.698;10.078;2023-07-28T01:46:59;4.23;;;2.50;;
15486;SDS011;7845;53.698;10.078;2023-07-28T01:49:25;4.27;;;2.60;;
15486;SDS011;7845;53.698;10.078;2023-07-28T01:51:50;3.40;;;1.50;;
15486;SDS011;7845;53.698;10.078;2023-07-28T01:54:15;3.50;;;1.60;;
15486;SDS011;7845;53.698;10.078;2023-07-28T01:56:41;3.73;;;1.70;;
15486;SDS011;7845;53.698;10.078;2023-07-28T01:59:06;4.30;;;2.23;;
15486;SDS011;7845;53.698;10.078;2023-07-28T02:01:31;4.23;;;2.20;;
15486;SDS011;7845;53.698;10.078;2023-07-28T02:03:57;4.30;;;2.60;;
15486;SDS011;7845;53.698;10.078;2023-07-28T02:06:22;4.80;;;2.80;;
15486;SDS011;7845;53.698;10.078;2023-07-28T02:08:48;4.70;;;2.60;;
15486;SDS011;7845;53.698;10.078;2023-07-28T02:11:13;4.23;;;2.13;;
15486;SDS011;7845;53.698;10.078;2023-07-28T02:13:38;3.93;;;2.10;;
15486;SDS011;7845;53.698;10.078;2023-07-28T02:16:04;4.43;;;2.77;;
15486;SDS011;7845;53.698;10.078;2023-07-28T02:18:29;6.07;;;3.30;;
15486;SDS011;7845;53.698;10.078;2023-07-28T02:20:55;5.40;;;3.83;;
15486;SDS011;7845;53.698;10.078;2023-07-28T02:23:20;6.37;;;4.57;;
15486;SDS011;7845;53.698;10.078;2023-07-28T02:25:46;5.40;;;3.80;;
15486;SDS011;7845;53.698;10.078;2023-07-28T02:28:11;5.43;;;3.60;;
15486;SDS011;7845;53.698;10.078;2023-07-28T02:30:37;5.40;;;3.60;;
15486;SDS011;7845;53.698;10.078;2023-07-28T02:33:03;5.20;;;3.57;;
15486;SDS011;7845;53.698;10.078;2023-07-28T02:35:28;4.70;;;2.73;;
15486;SDS011;7845;53.698;10.078;2023-07-28T02:37:53;4.87;;;3.33;;
15486;SDS011;7845;53.698;10.078;2023-07-28T02:40:19;4.43;;;3.00;;
15486;SDS011;7845;53.698;10.078;2023-07-28T02:42:44;4.47;;;2.40;;
15486;SDS011;7845;53.698;10.078;2023-07-28T02:45:09;5.77;;;3.60;;
15486;SDS011;7845;53.698;10.078;2023-07-28T02:47:35;4.43;;;2.30;;
15486;SDS011;7845;53.698;10.078;2023-07-28T02:50:00;5.03;;;2.93;;
15486;SDS011;7845;53.698;10.078;2023-07-28T02:52:26;4.50;;;2.60;;
15486;SDS011;7845;53.698;10.078;2023-07-28T02:54:51;4.80;;;2.83;;
15486;SDS011;7845;53.698;10.078;2023-07-28T02:57:16;5.00;;;2.37;;
15486;SDS011;7845;53.698;10.078;2023-07-28T02:59:42;3.70;;;1.70;;
15486;SDS011;7845;53.698;10.078;2023-07-28T03:02:07;6.63;;;3.07;;
15486;SDS011;7845;53.698;10.078;2023-07-28T03:04:32;4.30;;;2.50;;
15486;SDS011;7845;53.698;10.078;2023-07-28T03:06:58;4.20;;;2.60;;
15486;SDS011;7845;53.698;10.078;2023-07-28T03:09:23;4.37;;;2.30;;
15486;SDS011;7845;53.698;10.078;2023-07-28T03:11:49;4.30;;;2.37;;
15486;SDS011;7845;53.698;10.078;2023-07-28T03:14:14;4.07;;;2.33;;
15486;SDS011;7845;53.698;10.078;2023-07-28T03:16:40;4.07;;;1.90;;
15486;SDS011;7845;53.698;10.078;2023-07-28T03:21:41;3.47;;;1.70;;
15486;SDS011;7845;53.698;10.078;2023-07-28T03:24:06;4.10;;;2.67;;
15486;SDS011;7845;53.698;10.078;2023-07-28T03:26:32;4.50;;;2.30;;
15486;SDS011;7845;53.698;10.078;2023-07-28T03:28:57;3.93;;;2.20;;
15486;SDS011;7845;53.698;10.078;2023-07-28T03:31:22;4.77;;;2.50;;
15486;SDS011;7845;53.698;10.078;2023-07-28T03:33:48;4.80;;;3.13;;
15486;SDS011;7845;53.698;10.078;2023-07-28T03:36:13;3.80;;;2.07;;
15486;SDS011;7845;53.698;10.078;2023-07-28T03:38:38;4.47;;;2.50;;
15486;SDS011;7845;53.698;10.078;2023-07-28T03:41:03;4.97;;;3.17;;
15486;SDS011;7845;53.698;10.078;2023-07-28T03:43:29;4.90;;;2.90;;
15486;SDS011;7845;53.698;10.078;2023-07-28T03:45:54;4.10;;;2.27;;
15486;SDS011;7845;53.698;10.078;2023-07-28T03:48:20;5.50;;;3.80;;
15486;SDS011;7845;53.698;10.078;2023-07-28T03:50:45;5.80;;;3.90;;
15486;SDS011;7845;53.698;10.078;2023-07-28T03:53:10;5.60;;;3.80;;
15486;SDS011;7845;53.698;10.078;2023-07-28T03:55:35;4.83;;;3.17;;
15486;SDS011;7845;53.698;10.078;2023-07-28T03:58:01;5.10;;;3.40;;
15486;SDS011;7845;53.698;10.078;2023-07-28T04:00:27;6.73;;;4.00;;
15486;SDS011;7845;53.698;10.078;2023-07-28T04:02:53;5.50;;;3.20;;
15486;SDS011;7845;53.698;10.078;2023-07-28T04:05:18;4.20;;;2.30;;
15486;SDS011;7845;53.698;10.078;2023-07-28T04:07:43;4.80;;;3.20;;
15486;SDS011;7845;53.698;10.078;2023-07-28T04:10:09;6.03;;;3.83;;
15486;SDS011;7845;53.698;10.078;2023-07-28T04:12:34;5.10;;;3.53;;
15486;SDS011;7845;53.698;10.078;2023-07-28T04:15:00;5.43;;;3.77;;
15486;SDS011;7845;53.698;10.078;2023-07-28T04:17:25;4.77;;;2.93;;
15486;SDS011;7845;53.698;10.078;2023-07-28T04:19:50;4.60;;;2.87;;
15486;SDS011;7845;53.698;10.078;2023-07-28T04:22:16;4.90;;;3.10;;
15486;SDS011;7845;53.698;10.078;2023-07-28T04:24:46;4.07;;;2.27;;
15486;SDS011;7845;53.698;10.078;2023-07-28T04:27:12;4.50;;;2.70;;
15486;SDS011;7845;53.698;10.078;2023-07-28T04:29:37;3.90;;;2.00;;
15486;SDS011;7845;53.698;10.078;2023-07-28T04:32:03;4.20;;;2.33;;
15486;SDS011;7845;53.698;10.078;2023-07-28T04:34:28;5.10;;;3.40;;
15486;SDS011;7845;53.698;10.078;2023-07-28T04:36:53;6.13;;;3.80;;
15486;SDS011;7845;53.698;10.078;2023-07-28T04:39:19;5.17;;;3.73;;
15486;SDS011;7845;53.698;10.078;2023-07-28T04:41:45;4.80;;;2.97;;
15486;SDS011;7845;53.698;10.078;2023-07-28T04:44:10;4.97;;;2.43;;
15486;SDS011;7845;53.698;10.078;2023-07-28T04:46:36;4.10;;;2.20;;
15486;SDS011;7845;53.698;10.078;2023-07-28T04:49:01;4.77;;;2.80;;
15486;SDS011;7845;53.698;10.078;2023-07-28T04:51:27;4.97;;;2.93;;
15486;SDS011;7845;53.698;10.078;2023-07-28T04:53:53;4.83;;;3.23;;
15486;SDS011;7845;53.698;10.078;2023-07-28T04:56:18;4.83;;;2.83;;
15486;SDS011;7845;53.698;10.078;2023-07-28T04:58:43;4.00;;;2.20;;
15486;SDS011;7845;53.698;10.078;2023-07-28T05:01:09;4.57;;;2.53;;
15486;SDS011;7845;53.698;10.078;2023-07-28T05:03:34;4.03;;;2.33;;
15486;SDS011;7845;53.698;10.078;2023-07-28T05:05:59;5.83;;;3.40;;
15486;SDS011;7845;53.698;10.078;2023-07-28T05:08:25;4.80;;;2.77;;
15486;SDS011;7845;53.698;10.078;2023-07-28T05:10:50;4.30;;;2.80;;
15486;SDS011;7845;53.698;10.078;2023-07-28T05:13:16;3.77;;;1.97;;
15486;SDS011;7845;53.698;10.078;2023-07-28T05:15:41;3.80;;;2.20;;
15486;SDS011;7845;53.698;10.078;2023-07-28T05:18:06;3.73;;;2.00;;
15486;SDS011;7845;53.698;10.078;2023-07-28T05:20:32;4.37;;;2.10;;
15486;SDS011;7845;53.698;10.078;2023-07-28T05:22:57;5.10;;;3.47;;
15486;SDS011;7845;53.698;10.078;2023-07-28T05:25:22;4.87;;;3.20;;
15486;SDS011;7845;53.698;10.078;2023-07-28T05:27:48;4.77;;;2.80;;
15486;SDS011;7845;53.698;10.078;2023-07-28T05:30:13;6.10;;;4.60;;
15486;SDS011;7845;53.698;10.078;2023-07-28T05:32:38;7.00;;;4.70;;
15486;SDS011;7845;53.698;10.078;2023-07-28T05:35:04;5.90;;;4.40;;
15486;SDS011;7845;53.698;10.078;2023-07-28T05:37:29;5.40;;;3.70;;
15486;SDS011;7845;53.698;10.078;2023-07-28T05:39:55;6.27;;;4.97;;
15486;SDS011;7845;53.698;10.078;2023-07-28T05:42:20;5.37;;;3.60;;
15486;SDS011;7845;53.698;10.078;2023-07-28T05:44:45;5.60;;;4.03;;
15486;SDS011;7845;53.698;10.078;2023-07-28T05:47:11;5.93;;;4.23;;
15486;SDS011;7845;53.698;10.078;2023-07-28T05:49:36;4.90;;;3.00;;
15486;SDS011;7845;53.698;10.078;2023-07-28T05:52:01;5.60;;;3.80;;
15486;SDS011;7845;53.698;10.078;2023-07-28T05:54:27;6.70;;;5.20;;
15486;SDS011;7845;53.698;10.078;2023-07-28T05:56:52;7.20;;;5.17;;
15486;SDS011;7845;53.698;10.078;2023-07-28T05:59:17;6.33;;;4.93;;
15486;SDS011;7845;53.698;10.078;2023-07-28T06:01:44;8.30;;;5.20;;
15486;SDS011;7845;53.698;10.078;2023-07-28T06:04:10;6.93;;;5.47;;
15486;SDS011;7845;53.698;10.078;2023-07-28T06:06:35;6.93;;;5.00;;
15486;SDS011;7845;53.698;10.078;2023-07-28T06:09:00;5.70;;;3.97;;
15486;SDS011;7845;53.698;10.078;2023-07-28T06:11:26;5.90;;;4.60;;
15486;SDS011;7845;53.698;10.078;2023-07-28T06:13:51;5.27;;;3.60;;
15486;SDS011;7845;53.698;10.078;2023-07-28T06:16:17;9.13;;;3.93;;
15486;SDS011;7845;53.698;10.078;2023-07-28T06:18:42;4.70;;;3.43;;
15486;SDS011;7845;53.698;10.078;2023-07-28T06:21:07;4.63;;;2.87;;
15486;SDS011;7845;53.698;10.078;2023-07-28T06:23:33;4.50;;;2.70;;
15486;SDS011;7845;53.698;10.078;2023-07-28T06:25:58;5.70;;;4.30;;
15486;SDS011;7845;53.698;10.078;2023-07-28T06:28:25;5.83;;;4.03;;
15486;SDS011;7845;53.698;10.078;2023-07-28T06:30:54;4.50;;;2.70;;
15486;SDS011;7845;53.698;10.078;2023-07-28T06:33:20;6.57;;;5.07;;
15486;SDS011;7845;53.698;10.078;2023-07-28T06:35:46;7.00;;;5.00;;
15486;SDS011;7845;53.698;10.078;2023-07-28T06:38:11;6.20;;;4.40;;
15486;SDS011;7845;53.698;10.078;2023-07-28T06:40:37;6.33;;;4.13;;
15486;SDS011;7845;53.698;10.078;2023-07-28T06:43:02;5.00;;;3.50;;
15486;SDS011;7845;53.698;10.078;2023-07-28T06:45:27;6.00;;;3.90;;
15486;SDS011;7845;53.698;10.078;2023-07-28T06:47:53;5.37;;;3.40;;
15486;SDS011;7845;53.698;10.078;2023-07-28T06:50:18;4.50;;;2.70;;
15486;SDS011;7845;53.698;10.078;2023-07-28T06:52:44;4.63;;;2.83;;
15486;SDS011;7845;53.698;10.078;2023-07-28T06:55:09;5.40;;;2.97;;
15486;SDS011;7845;53.698;10.078;2023-07-28T06:57:34;4.60;;;2.70;;
15486;SDS011;7845;53.698;10.078;2023-07-28T07:00:00;4.63;;;2.33;;
15486;SDS011;7845;53.698;10.078;2023-07-28T07:02:26;4.73;;;3.07;;
15486;SDS011;7845;53.698;10.078;2023-07-28T07:04:51;5.57;;;3.60;;
15486;SDS011;7845;53.698;10.078;2023-07-28T07:07:16;4.83;;;3.00;;
15486;SDS011;7845;53.698;10.078;2023-07-28T07:09:41;4.63;;;2.63;;
15486;SDS011;7845;53.698;10.078;2023-07-28T07:12:08;5.50;;;3.23;;
15486;SDS011;7845;53.698;10.078;2023-07-28T07:14:33;4.60;;;2.30;;
15486;SDS011;7845;53.698;10.078;2023-07-28T07:17:00;4.10;;;2.27;;
15486;SDS011;7845;53.698;10.078;2023-07-28T07:19:25;4.77;;;2.20;;
15486;SDS011;7845;53.698;10.078;2023-07-28T07:21:50;3.80;;;1.70;;
15486;SDS011;7845;53.698;10.078;2023-07-28T07:24:16;3.80;;;1.70;;
15486;SDS011;7845;53.698;10.078;2023-07-28T07:26:41;4.40;;;2.60;;
15486;SDS011;7845;53.698;10.078;2023-07-28T07:29:07;5.07;;;2.60;;
15486;SDS011;7845;53.698;10.078;2023-07-28T07:31:33;4.00;;;1.80;;
15486;SDS011;7845;53.698;10.078;2023-07-28T07:33:59;3.63;;;1.57;;
15486;SDS011;7845;53.698;10.078;2023-07-28T07:36:25;3.53;;;1.60;;
15486;SDS011;7845;53.698;10.078;2023-07-28T07:38:50;3.60;;;1.60;;
15486;SDS011;7845;53.698;10.078;2023-07-28T07:41:17;3.07;;;1.17;;
15486;SDS011;7845;53.698;10.078;2023-07-28T07:43:45;3.00;;;1.10;;
15486;SDS011;7845;53.698;10.078;2023-07-28T07:46:11;3.40;;;1.10;;
15486;SDS011;7845;53.698;10.078;2023-07-28T07:48:38;3.10;;;1.37;;
15486;SDS011;7845;53.698;10.078;2023-07-28T07:51:04;3.57;;;1.30;;
15486;SDS011;7845;53.698;10.078;2023-07-28T07:53:29;3.20;;;1.33;;
15486;SDS011;7845;53.698;10.078;2023-07-28T07:55:55;3.43;;;1.13;;
15486;SDS011;7845;53.698;10.078;2023-07-28T07:58:20;3.63;;;1.40;;
15486;SDS011;7845;53.698;10.078;2023-07-28T08:00:47;3.30;;;1.33;;
15486;SDS011;7845;53.698;10.078;2023-07-28T08:03:12;3.83;;;1.70;;
15486;SDS011;7845;53.698;10.078;2023-07-28T08:05:37;4.30;;;1.20;;
15486;SDS011;7845;53.698;10.078;2023-07-28T08:08:04;3.13;;;1.20;;
15486;SDS011;7845;53.698;10.078;2023-07-28T08:10:32;3.30;;;1.30;;
15486;SDS011;7845;53.698;10.078;2023-07-28T08:12:58;3.30;;;1.20;;
15486;SDS011;7845;53.698;10.078;2023-07-28T08:15:24;3.00;;;1.10;;
15486;SDS011;7845;53.698;10.078;2023-07-28T08:17:50;3.20;;;1.57;;
15486;SDS011;7845;53.698;10.078;2023-07-28T08:20:16;3.27;;;1.07;;
15486;SDS011;7845;53.698;10.078;2023-07-28T08:22:41;2.97;;;0.90;;
15486;SDS011;7845;53.698;10.078;2023-07-28T08:25:07;2.93;;;0.90;;
15486;SDS011;7845;53.698;10.078;2023-07-28T08:27:33;3.20;;;1.10;;
15486;SDS011;7845;53.698;10.078;2023-07-28T08:30:00;3.20;;;1.07;;
15486;SDS011;7845;53.698;10.078;2023-07-28T08:32:25;3.17;;;1.03;;
15486;SDS011;7845;53.698;10.078;2023-07-28T08:34:50;2.90;;;0.77;;
15486;SDS011;7845;53.698;10.078;2023-07-28T08:37:16;4.40;;;1.00;;
15486;SDS011;7845;53.698;10.078;2023-07-28T08:39:41;3.77;;;1.23;;
15486;SDS011;7845;53.698;10.078;2023-07-28T08:42:07;2.97;;;0.93;;
15486;SDS011;7845;53.698;10.078;2023-07-28T08:44:33;3.40;;;1.00;;
15486;SDS011;7845;53.698;10.078;2023-07-28T08:47:03;3.07;;;0.83;;
15486;SDS011;7845;53.698;10.078;2023-07-28T08:49:30;3.00;;;1.00;;
15486;SDS011;7845;53.698;10.078;2023-07-28T08:51:58;3.33;;;1.00;;
15486;SDS011;7845;53.698;10.078;2023-07-28T08:54:25;2.90;;;0.70;;
15486;SDS011;7845;53.698;10.078;2023-07-28T08:56:50;3.00;;;0.67;;
15486;SDS011;7845;53.698;10.078;2023-07-28T08:59:22;2.80;;;0.60;;
15486;SDS011;7845;53.698;10.078;2023-07-28T09:01:50;2.90;;;0.60;;
15486;SDS011;7845;53.698;10.078;2023-07-28T09:04:20;3.00;;;0.70;;
15486;SDS011;7845;53.698;10.078;2023-07-28T09:06:50;2.80;;;0.60;;
15486;SDS011;7845;53.698;10.078;2023-07-28T09:09:17;2.80;;;0.53;;
15486;SDS011;7845;53.698;10.078;2023-07-28T09:11:44;2.80;;;0.60;;
15486;SDS011;7845;53.698;10.078;2023-07-28T09:14:15;2.90;;;0.70;;
15486;SDS011;7845;53.698;10.078;2023-07-28T09:16:45;3.00;;;0.67;;
15486;SDS011;7845;53.698;10.078;2023-07-28T09:19:11;3.30;;;0.80;;
15486;SDS011;7845;53.698;10.078;2023-07-28T09:21:40;3.17;;;0.93;;
15486;SDS011;7845;53.698;10.078;2023-07-28T09:24:11;3.23;;;0.70;;
15486;SDS011;7845;53.698;10.078;2023-07-28T09:26:44;3.00;;;0.80;;
15486;SDS011;7845;53.698;10.078;2023-07-28T09:29:12;3.30;;;0.93;;
15486;SDS011;7845;53.698;10.078;2023-07-28T09:31:45;2.77;;;0.60;;
15486;SDS011;7845;53.698;10.078;2023-07-28T09:34:12;2.90;;;0.70;;
15486;SDS011;7845;53.698;10.078;2023-07-28T09:36:47;2.90;;;0.70;;
15486;SDS011;7845;53.698;10.078;2023-07-28T09:39:13;2.80;;;0.70;;
15486;SDS011;7845;53.698;10.078;2023-07-28T09:41:39;3.10;;;0.80;;
15486;SDS011;7845;53.698;10.078;2023-07-28T09:44:05;3.10;;;0.87;;
15486;SDS011;7845;53.698;10.078;2023-07-28T09:46:33;2.93;;;0.60;;
15486;SDS011;7845;53.698;10.078;2023-07-28T09:49:05;3.23;;;0.90;;
15486;SDS011;7845;53.698;10.078;2023-07-28T09:51:34;3.20;;;0.90;;
15486;SDS011;7845;53.698;10.078;2023-07-28T09:54:07;3.00;;;0.80;;
15486;SDS011;7845;53.698;10.078;2023-07-28T09:56:37;3.00;;;0.83;;
15486;SDS011;7845;53.698;10.078;2023-07-28T09:59:05;2.90;;;0.70;;
15486;SDS011;7845;53.698;10.078;2023-07-28T10:01:37;3.90;;;1.30;;
15486;SDS011;7845;53.698;10.078;2023-07-28T10:04:04;3.00;;;0.90;;
15486;SDS011;7845;53.698;10.078;2023-07-28T10:06:29;3.23;;;0.97;;
15486;SDS011;7845;53.698;10.078;2023-07-28T10:08:57;3.50;;;1.10;;
15486;SDS011;7845;53.698;10.078;2023-07-28T10:11:22;3.00;;;0.90;;
15486;SDS011;7845;53.698;10.078;2023-07-28T10:13:50;2.93;;;0.63;;
15486;SDS011;7845;53.698;10.078;2023-07-28T10:16:16;3.40;;;0.93;;
15486;SDS011;7845;53.698;10.078;2023-07-28T10:18:51;6.30;;;1.73;;
15486;SDS011;7845;53.698;10.078;2023-07-28T10:21:19;3.03;;;0.77;;
15486;SDS011;7845;53.698;10.078;2023-07-28T10:23:45;2.90;;;0.60;;
15486;SDS011;7845;53.698;10.078;2023-07-28T10:26:18;2.90;;;0.60;;
15486;SDS011;7845;53.698;10.078;2023-07-28T10:28:56;3.10;;;0.80;;
15486;SDS011;7845;53.698;10.078;2023-07-28T10:31:33;3.20;;;0.50;;
15486;SDS011;7845;53.698;10.078;2023-07-28T10:33:59;3.40;;;1.10;;
15486;SDS011;7845;53.698;10.078;2023-07-28T10:41:34;3.30;;;1.10;;
15486;SDS011;7845;53.698;10.078;2023-07-28T10:44:00;3.10;;;0.83;;
15486;SDS011;7845;53.698;10.078;2023-07-28T10:46:26;3.53;;;0.83;;
15486;SDS011;7845;53.698;10.078;2023-07-28T10:48:52;3.43;;;1.00;;
15486;SDS011;7845;53.698;10.078;2023-07-28T10:51:27;3.20;;;0.80;;
15486;SDS011;7845;53.698;10.078;2023-07-28T10:53:58;3.53;;;1.20;;
15486;SDS011;7845;53.698;10.078;2023-07-28T10:56:25;3.00;;;0.67;;
15486;SDS011;7845;53.698;10.078;2023-07-28T10:58:57;3.23;;;0.70;;
15486;SDS011;7845;53.698;10.078;2023-07-28T11:01:25;3.20;;;0.70;;
15486;SDS011;7845;53.698;10.078;2023-07-28T11:03:56;3.13;;;0.90;;
15486;SDS011;7845;53.698;10.078;2023-07-28T11:06:21;3.90;;;1.30;;
15486;SDS011;7845;53.698;10.078;2023-07-28T11:08:48;3.10;;;0.90;;
15486;SDS011;7845;53.698;10.078;2023-07-28T11:11:14;4.17;;;1.30;;
15486;SDS011;7845;53.698;10.078;2023-07-28T11:13:40;3.83;;;1.00;;
15486;SDS011;7845;53.698;10.078;2023-07-28T11:16:05;3.33;;;1.00;;
15486;SDS011;7845;53.698;10.078;2023-07-28T11:18:30;3.10;;;0.90;;
15486;SDS011;7845;53.698;10.078;2023-07-28T11:20:57;3.40;;;1.07;;
15486;SDS011;7845;53.698;10.078;2023-07-28T11:23:22;3.03;;;0.80;;
15486;SDS011;7845;53.698;10.078;2023-07-28T11:25:48;3.30;;;0.87;;
15486;SDS011;7845;53.698;10.078;2023-07-28T11:28:15;3.70;;;1.10;;
15486;SDS011;7845;53.698;10.078;2023-07-28T11:30:40;3.20;;;0.90;;
15486;SDS011;7845;53.698;10.078;2023-07-28T11:33:10;3.57;;;1.30;;
15486;SDS011;7845;53.698;10.078;2023-07-28T11:35:38;3.00;;;0.80;;
15486;SDS011;7845;53.698;10.078;2023-07-28T11:38:06;3.00;;;0.70;;
15486;SDS011;7845;53.698;10.078;2023-07-28T11:40:33;3.23;;;1.00;;
15486;SDS011;7845;53.698;10.078;2023-07-28T11:42:59;3.50;;;1.03;;
15486;SDS011;7845;53.698;10.078;2023-07-28T11:45:25;3.47;;;0.90;;
15486;SDS011;7845;53.698;10.078;2023-07-28T11:47:57;3.30;;;0.80;;
15486;SDS011;7845;53.698;10.078;2023-07-28T11:50:26;4.00;;;1.00;;
15486;SDS011;7845;53.698;10.078;2023-07-28T11:52:53;3.13;;;0.87;;
15486;SDS011;7845;53.698;10.078;2023-07-28T11:55:19;3.17;;;0.90;;
15486;SDS011;7845;53.698;10.078;2023-07-28T11:57:46;3.53;;;0.80;;
15486;SDS011;7845;53.698;10.078;2023-07-28T12:00:12;3.23;;;0.77;;
15486;SDS011;7845;53.698;10.078;2023-07-28T12:02:41;3.10;;;0.70;;
15486;SDS011;7845;53.698;10.078;2023-07-28T12:05:14;3.10;;;0.80;;
15486;SDS011;7845;53.698;10.078;2023-07-28T12:07:41;3.10;;;0.80;;
15486;SDS011;7845;53.698;10.078;2023-07-28T12:10:11;4.47;;;2.27;;
15486;SDS011;7845;53.698;10.078;2023-07-28T12:12:56;3.20;;;0.77;;
15486;SDS011;7845;53.698;10.078;2023-07-28T12:15:26;6.17;;;1.83;;
15486;SDS011;7845;53.698;10.078;2023-07-28T12:18:07;3.20;;;0.80;;
15486;SDS011;7845;53.698;10.078;2023-07-28T12:20:35;3.17;;;1.00;;
15486;SDS011;7845;53.698;10.078;2023-07-28T12:23:11;3.70;;;1.30;;
15486;SDS011;7845;53.698;10.078;2023-07-28T12:25:38;3.30;;;1.10;;
15486;SDS011;7845;53.698;10.078;2023-07-28T12:28:03;3.40;;;1.17;;
15486;SDS011;7845;53.698;10.078;2023-07-28T12:30:29;3.30;;;0.87;;
15486;SDS011;7845;53.698;10.078;2023-07-28T12:32:54;3.40;;;1.23;;
15486;SDS011;7845;53.698;10.078;2023-07-28T12:35:20;3.30;;;1.10;;
15486;SDS011;7845;53.698;10.078;2023-07-28T12:37:48;3.47;;;0.80;;
15486;SDS011;7845;53.698;10.078;2023-07-28T12:40:14;4.13;;;1.00;;
15486;SDS011;7845;53.698;10.078;2023-07-28T12:42:40;3.27;;;0.90;;
15486;SDS011;7845;53.698;10.078;2023-07-28T12:45:06;3.20;;;0.90;;
15486;SDS011;7845;53.698;10.078;2023-07-28T12:47:33;3.53;;;1.10;;
15486;SDS011;7845;53.698;10.078;2023-07-28T12:49:58;3.47;;;1.03;;
15486;SDS011;7845;53.698;10.078;2023-07-28T12:52:24;3.97;;;1.10;;
15486;SDS011;7845;53.698;10.078;2023-07-28T12:54:49;3.10;;;0.80;;
15486;SDS011;7845;53.698;10.078;2023-07-28T12:57:16;3.30;;;0.90;;
15486;SDS011;7845;53.698;10.078;2023-07-28T12:59:41;3.10;;;0.70;;
15486;SDS011;7845;53.698;10.078;2023-07-28T13:02:07;3.47;;;1.03;;
15486;SDS011;7845;53.698;10.078;2023-07-28T13:04:32;3.40;;;1.17;;
15486;SDS011;7845;53.698;10.078;2023-07-28T13:06:57;3.40;;;0.97;;
15486;SDS011;7845;53.698;10.078;2023-07-28T13:09:23;3.30;;;1.00;;
15486;SDS011;7845;53.698;10.078;2023-07-28T13:11:49;3.33;;;0.90;;
15486;SDS011;7845;53.698;10.078;2023-07-28T13:14:14;3.37;;;1.07;;
15486;SDS011;7845;53.698;10.078;2023-07-28T13:16:39;3.53;;;1.07;;
15486;SDS011;7845;53.698;10.078;2023-07-28T13:19:05;3.97;;;1.10;;
15486;SDS011;7845;53.698;10.078;2023-07-28T13:21:31;3.30;;;0.90;;
15486;SDS011;7845;53.698;10.078;2023-07-28T13:23:56;3.30;;;1.00;;
15486;SDS011;7845;53.698;10.078;2023-07-28T13:26:21;3.20;;;0.70;;
15486;SDS011;7845;53.698;10.078;2023-07-28T13:28:47;3.10;;;0.70;;
15486;SDS011;7845;53.698;10.078;2023-07-28T13:31:14;3.30;;;0.87;;
15486;SDS011;7845;53.698;10.078;2023-07-28T13:33:41;3.10;;;0.83;;
15486;SDS011;7845;53.698;10.078;2023-07-28T13:36:07;3.00;;;0.67;;
15486;SDS011;7845;53.698;10.078;2023-07-28T13:38:33;3.20;;;0.90;;
15486;SDS011;7845;53.698;10.078;2023-07-28T13:40:58;3.07;;;0.60;;
15486;SDS011;7845;53.698;10.078;2023-07-28T13:43:24;3.20;;;0.80;;
15486;SDS011;7845;53.698;10.078;2023-07-28T13:45:49;3.30;;;1.00;;
15486;SDS011;7845;53.698;10.078;2023-07-28T13:48:14;3.30;;;1.00;;
15486;SDS011;7845;53.698;10.078;2023-07-28T13:50:40;3.17;;;0.90;;
15486;SDS011;7845;53.698;10.078;2023-07-28T13:53:05;3.30;;;1.20;;
15486;SDS011;7845;53.698;10.078;2023-07-28T13:55:30;3.20;;;1.00;;
15486;SDS011;7845;53.698;10.078;2023-07-28T13:57:56;3.20;;;1.00;;
15486;SDS011;7845;53.698;10.078;2023-07-28T14:00:21;3.20;;;0.90;;
15486;SDS011;7845;53.698;10.078;2023-07-28T14:02:47;3.30;;;0.83;;
15486;SDS011;7845;53.698;10.078;2023-07-28T14:05:12;3.17;;;0.90;;
15486;SDS011;7845;53.698;10.078;2023-07-28T14:07:38;3.60;;;1.10;;
15486;SDS011;7845;53.698;10.078;2023-07-28T14:10:03;3.00;;;0.60;;
15486;SDS011;7845;53.698;10.078;2023-07-28T14:12:29;3.30;;;0.80;;
15486;SDS011;7845;53.698;10.078;2023-07-28T14:14:54;3.07;;;0.80;;
15486;SDS011;7845;53.698;10.078;2023-07-28T14:17:20;3.23;;;0.80;;
15486;SDS011;7845;53.698;10.078;2023-07-28T14:19:45;3.10;;;0.80;;
15486;SDS011;7845;53.698;10.078;2023-07-28T14:22:10;3.10;;;0.70;;
15486;SDS011;7845;53.698;10.078;2023-07-28T14:24:35;3.13;;;0.80;;
15486;SDS011;7845;53.698;10.078;2023-07-28T14:27:01;3.33;;;0.93;;
15486;SDS011;7845;53.698;10.078;2023-07-28T14:29:27;3.10;;;0.77;;
15486;SDS011;7845;53.698;10.078;2023-07-28T14:31:52;3.10;;;0.80;;
15486;SDS011;7845;53.698;10.078;2023-07-28T14:34:18;3.30;;;0.90;;
15486;SDS011;7845;53.698;10.078;2023-07-28T14:36:44;3.30;;;1.00;;
15486;SDS011;7845;53.698;10.078;2023-07-28T14:39:10;3.20;;;0.80;;
15486;SDS011;7845;53.698;10.078;2023-07-28T14:41:36;2.93;;;0.63;;
15486;SDS011;7845;53.698;10.078;2023-07-28T14:44:01;3.10;;;0.77;;
15486;SDS011;7845;53.698;10.078;2023-07-28T14:46:27;3.10;;;0.73;;
15486;SDS011;7845;53.698;10.078;2023-07-28T14:48:53;3.00;;;0.60;;
15486;SDS011;7845;53.698;10.078;2023-07-28T14:51:18;3.20;;;0.60;;
15486;SDS011;7845;53.698;10.078;2023-07-28T14:53:44;2.97;;;0.67;;
15486;SDS011;7845;53.698;10.078;2023-07-28T14:56:13;3.00;;;0.63;;
15486;SDS011;7845;53.698;10.078;2023-07-28T14:58:39;2.90;;;0.50;;